createdAt,value
2017-08-13T00:00:50.482Z,17.60
2017-08-13T00:03:19.449Z,17.60
2017-08-13T00:05:49.196Z,17.30
2017-08-13T00:08:18.533Z,17.20
2017-08-13T00:10:49.593Z,17.20
2017-08-13T00:13:18.612Z,17.20
2017-08-13T00:15:48.735Z,17.40
2017-08-13T00:18:18.196Z,17.50
2017-08-13T00:20:47.174Z,17.70
2017-08-13T00:23:16.135Z,17.80
2017-08-13T00:25:45.105Z,17.90
2017-08-13T00:28:14.343Z,17.90
2017-08-13T00:30:43.348Z,18.00
2017-08-13T00:33:12.318Z,18.10
2017-08-13T00:35:41.284Z,18.20
2017-08-13T00:38:10.546Z,18.20
2017-08-13T00:40:39.859Z,18.30
2017-08-13T00:43:08.844Z,18.30
2017-08-13T00:45:58.387Z,18.30
2017-08-13T00:48:27.560Z,18.30
2017-08-13T00:50:56.580Z,18.30
2017-08-13T00:53:25.955Z,18.40
2017-08-13T00:55:55.049Z,18.40
2017-08-13T00:58:23.999Z,18.30
2017-08-13T01:00:53.768Z,18.30
2017-08-13T01:03:36.107Z,18.20
2017-08-13T01:06:06.683Z,18.30
2017-08-13T01:08:35.892Z,18.20
2017-08-13T01:11:14.621Z,18.10
2017-08-13T01:13:43.601Z,18.10
2017-08-13T01:16:12.818Z,18.00
2017-08-13T01:18:41.853Z,17.90
2017-08-13T01:21:10.809Z,17.80
2017-08-13T01:23:39.934Z,17.80
2017-08-13T01:26:09.071Z,17.70
2017-08-13T01:28:38.185Z,17.70
2017-08-13T01:31:07.171Z,17.60
2017-08-13T01:33:36.148Z,17.60
2017-08-13T01:36:06.129Z,17.40
2017-08-13T01:38:35.096Z,17.30
2017-08-13T01:41:04.088Z,17.30
2017-08-13T01:43:33.075Z,17.10
2017-08-13T01:46:02.044Z,17.10
2017-08-13T01:48:31.076Z,17.10
2017-08-13T01:51:00.032Z,17.30
2017-08-13T01:53:29.165Z,17.30
2017-08-13T01:55:58.139Z,17.40
2017-08-13T01:58:27.095Z,17.40
2017-08-13T02:00:56.157Z,17.30
2017-08-13T02:03:25.976Z,17.30
2017-08-13T02:05:54.988Z,17.30
2017-08-13T02:08:23.999Z,17.30
2017-08-13T02:10:54.105Z,17.40
2017-08-13T02:13:23.353Z,17.40
2017-08-13T02:15:52.327Z,17.40
2017-08-13T02:18:21.313Z,17.30
2017-08-13T02:20:50.625Z,17.30
2017-08-13T02:23:19.605Z,17.40
2017-08-13T02:25:48.566Z,17.40
2017-08-13T02:28:17.560Z,17.30
2017-08-13T02:30:46.533Z,17.30
2017-08-13T02:33:15.500Z,17.20
2017-08-13T02:35:44.480Z,17.30
2017-08-13T02:38:13.453Z,17.40
2017-08-13T02:40:42.422Z,17.30
2017-08-13T02:43:11.428Z,17.40
2017-08-13T02:45:40.397Z,17.20
2017-08-13T02:48:09.374Z,17.10
2017-08-13T02:50:39.117Z,17.20
2017-08-13T02:53:08.072Z,17.20
2017-08-13T02:55:37.061Z,17.20
2017-08-13T02:58:06.376Z,17.10
2017-08-13T03:00:36.131Z,17.00
2017-08-13T03:03:05.263Z,17.00
2017-08-13T03:05:34.227Z,17.00
2017-08-13T03:08:03.231Z,17.10
2017-08-13T03:10:32.203Z,17.00
2017-08-13T03:13:01.184Z,16.90
2017-08-13T03:15:30.164Z,16.90
2017-08-13T03:17:59.141Z,16.90
2017-08-13T03:20:28.140Z,16.90
2017-08-13T03:22:57.109Z,16.90
2017-08-13T03:25:26.855Z,16.90
2017-08-13T03:27:55.839Z,16.90
2017-08-13T03:30:24.820Z,16.90
2017-08-13T03:32:54.586Z,16.90
2017-08-13T03:35:23.555Z,16.80
2017-08-13T03:37:52.532Z,16.80
2017-08-13T03:40:32.087Z,16.70
2017-08-13T03:43:01.069Z,16.60
2017-08-13T03:45:30.076Z,16.60
2017-08-13T03:47:59.049Z,16.60
2017-08-13T03:50:28.017Z,16.70
2017-08-13T03:52:57.764Z,16.80
2017-08-13T03:55:26.738Z,16.70
2017-08-13T03:57:55.744Z,16.80
2017-08-13T04:00:24.716Z,16.80
2017-08-13T04:02:53.720Z,16.80
2017-08-13T04:05:22.716Z,16.90
2017-08-13T04:07:51.680Z,17.00
2017-08-13T04:10:21.459Z,17.10
2017-08-13T04:12:50.429Z,17.10
2017-08-13T04:15:19.407Z,17.10
2017-08-13T04:17:48.371Z,17.20
2017-08-13T04:20:17.361Z,17.30
2017-08-13T04:22:46.350Z,17.10
2017-08-13T04:25:16.099Z,17.00
2017-08-13T04:27:45.079Z,16.90
2017-08-13T04:30:14.072Z,17.00
2017-08-13T04:32:43.057Z,17.00
2017-08-13T04:35:12.048Z,17.10
2017-08-13T04:37:41.797Z,17.30
2017-08-13T04:40:10.790Z,17.20
2017-08-13T04:42:39.761Z,17.30
2017-08-13T04:45:08.755Z,17.40
2017-08-13T04:47:37.767Z,17.40
2017-08-13T04:50:06.740Z,17.50
2017-08-13T04:52:35.699Z,17.60
2017-08-13T04:55:04.684Z,17.50
2017-08-13T04:57:33.653Z,17.60
2017-08-13T05:00:02.655Z,17.50
2017-08-13T05:02:31.624Z,17.60
2017-08-13T05:05:00.600Z,17.70
2017-08-13T05:07:29.586Z,17.70
2017-08-13T05:09:58.545Z,17.50
2017-08-13T05:12:30.288Z,17.60
2017-08-13T05:14:59.265Z,17.60
2017-08-13T05:17:28.236Z,17.60
2017-08-13T05:19:57.219Z,17.70
2017-08-13T05:22:26.210Z,17.80
2017-08-13T05:24:55.222Z,17.80
2017-08-13T05:27:24.203Z,17.80
2017-08-13T05:29:53.185Z,17.90
2017-08-13T05:32:22.224Z,17.90
2017-08-13T05:34:51.570Z,18.00
2017-08-13T05:37:20.559Z,18.00
2017-08-13T05:39:49.531Z,18.10
2017-08-13T05:42:18.507Z,18.10
2017-08-13T05:44:47.492Z,18.20
2017-08-13T05:47:16.473Z,18.20
2017-08-13T05:49:45.457Z,18.30
2017-08-13T05:52:14.424Z,18.40
2017-08-13T05:54:43.402Z,18.50
2017-08-13T05:57:12.387Z,18.60
2017-08-13T05:59:42.128Z,18.60
2017-08-13T06:02:11.135Z,18.50
2017-08-13T06:04:40.099Z,18.60
2017-08-13T06:07:09.066Z,18.70
2017-08-13T06:09:38.816Z,19.10
2017-08-13T06:12:07.801Z,19.00
2017-08-13T06:14:36.798Z,19.30
2017-08-13T06:17:05.760Z,19.40
2017-08-13T06:19:35.509Z,19.70
2017-08-13T06:22:04.500Z,19.60
2017-08-13T06:24:33.459Z,19.70
2017-08-13T06:27:02.441Z,19.80
2017-08-13T06:29:32.203Z,20.00
2017-08-13T06:32:01.184Z,19.90
2017-08-13T06:34:30.165Z,20.00
2017-08-13T06:36:59.158Z,20.00
2017-08-13T06:39:28.113Z,20.10
2017-08-13T06:41:57.112Z,20.40
2017-08-13T06:44:26.076Z,20.60
2017-08-13T06:46:55.193Z,20.70
2017-08-13T06:49:24.933Z,21.10
2017-08-13T06:51:53.900Z,21.00
2017-08-13T06:54:23.685Z,21.50
2017-08-13T06:56:52.806Z,21.40
2017-08-13T06:59:22.548Z,22.00
2017-08-13T07:01:51.513Z,21.90
2017-08-13T07:04:20.480Z,22.20
2017-08-13T07:06:49.487Z,22.30
2017-08-13T07:09:19.227Z,22.60
2017-08-13T07:11:48.290Z,22.50
2017-08-13T07:14:17.398Z,22.60
2017-08-13T07:17:15.350Z,22.90
2017-08-13T07:19:44.360Z,22.90
2017-08-13T07:22:14.266Z,23.10
2017-08-13T07:24:44.058Z,23.60
2017-08-13T07:27:16.995Z,23.50
2017-08-13T07:29:45.976Z,23.80
2017-08-13T07:32:15.733Z,23.60
2017-08-13T07:34:44.719Z,23.50
2017-08-13T07:37:13.695Z,23.20
2017-08-13T07:39:42.683Z,23.00
2017-08-13T07:42:11.781Z,22.80
2017-08-13T07:44:44.775Z,22.80
2017-08-13T07:47:13.771Z,22.90
2017-08-13T07:49:42.919Z,22.90
2017-08-13T07:55:19.533Z,23.20
2017-08-13T07:57:48.498Z,23.20
2017-08-13T08:00:17.619Z,23.40
2017-08-13T08:02:46.601Z,23.50
2017-08-13T08:05:18.588Z,23.40
2017-08-13T08:07:47.635Z,23.40
2017-08-13T08:10:16.760Z,23.50
2017-08-13T08:12:45.813Z,23.30
2017-08-13T08:15:14.828Z,23.30
2017-08-13T08:17:43.800Z,23.30
2017-08-13T08:20:12.811Z,23.20
2017-08-13T08:22:42.551Z,23.00
2017-08-13T08:25:11.540Z,22.90
2017-08-13T08:27:40.545Z,23.20
2017-08-13T08:30:09.522Z,23.50
2017-08-13T08:32:38.519Z,23.80
2017-08-13T08:35:07.508Z,24.20
2017-08-13T08:37:36.522Z,24.60
2017-08-13T08:40:12.292Z,24.50
2017-08-13T08:42:41.285Z,24.30
2017-08-13T08:45:10.290Z,24.20
2017-08-13T08:47:39.264Z,24.20
2017-08-13T08:50:08.236Z,24.50
2017-08-13T08:52:37.256Z,24.90
2017-08-13T08:55:06.262Z,25.00
2017-08-13T08:57:35.489Z,25.30
2017-08-13T09:00:04.478Z,25.60
2017-08-13T09:02:34.209Z,25.90
2017-08-13T09:05:03.228Z,25.90
2017-08-13T09:07:32.225Z,25.80
2017-08-13T09:10:01.215Z,25.70
2017-08-13T09:12:30.208Z,25.40
2017-08-13T09:14:59.195Z,25.30
2017-08-13T09:17:28.193Z,25.20
2017-08-13T09:19:57.645Z,25.00
2017-08-13T09:22:26.668Z,24.60
2017-08-13T09:24:55.684Z,24.20
2017-08-13T09:27:24.702Z,24.10
2017-08-13T09:29:53.753Z,24.20
2017-08-13T09:32:23.486Z,24.70
2017-08-13T09:34:52.476Z,24.60
2017-08-13T09:37:21.423Z,25.10
2017-08-13T09:39:51.151Z,25.50
2017-08-13T09:42:20.145Z,25.40
2017-08-13T09:44:49.104Z,25.60
2017-08-13T09:47:18.040Z,25.90
2017-08-13T09:49:47.002Z,26.20
2017-08-13T09:52:15.960Z,26.70
2017-08-13T09:54:44.931Z,27.10
2017-08-13T09:57:13.883Z,27.50
2017-08-13T09:59:42.832Z,27.60
2017-08-13T10:02:11.786Z,27.40
2017-08-13T10:04:40.748Z,27.30
2017-08-13T10:07:09.710Z,27.20
2017-08-13T10:09:38.684Z,27.30
2017-08-13T10:12:07.638Z,27.30
2017-08-13T10:14:36.605Z,27.50
2017-08-13T10:17:05.710Z,27.90
2017-08-13T10:19:34.691Z,28.40
2017-08-13T10:22:03.657Z,28.90
2017-08-13T10:24:32.608Z,29.70
2017-08-13T10:27:01.563Z,30.00
2017-08-13T10:29:30.521Z,30.00
2017-08-13T10:31:59.480Z,30.10
2017-08-13T10:34:28.839Z,30.20
2017-08-13T10:36:57.797Z,30.00
2017-08-13T10:39:26.762Z,30.60
2017-08-13T10:41:55.703Z,30.70
2017-08-13T10:44:24.680Z,30.20
2017-08-13T10:46:53.623Z,30.10
2017-08-13T10:49:23.058Z,30.10
2017-08-13T10:51:52.690Z,30.40
2017-08-13T10:54:22.166Z,30.30
2017-08-13T10:56:51.467Z,29.80
2017-08-13T10:59:23.557Z,29.20
2017-08-13T11:01:53.979Z,28.70
2017-08-13T11:04:23.532Z,28.30
2017-08-13T11:06:52.801Z,27.80
2017-08-13T11:09:22.980Z,27.30
2017-08-13T11:11:53.008Z,27.10
2017-08-13T11:14:22.159Z,27.00
2017-08-13T11:16:51.882Z,27.10
2017-08-13T11:19:20.847Z,27.10
2017-08-13T11:21:49.811Z,27.70
2017-08-13T11:24:18.763Z,28.00
2017-08-13T11:26:47.728Z,27.70
2017-08-13T11:29:17.469Z,27.90
2017-08-13T11:31:46.447Z,27.80
2017-08-13T11:34:16.171Z,29.50
2017-08-13T11:36:45.144Z,29.50
2017-08-13T11:39:14.154Z,30.20
2017-08-13T11:41:43.111Z,31.00
2017-08-13T11:44:12.122Z,31.50
2017-08-13T11:46:41.839Z,31.40
2017-08-13T11:49:10.804Z,31.30
2017-08-13T11:51:39.755Z,30.80
2017-08-13T11:54:08.718Z,30.50
2017-08-13T11:56:37.681Z,30.30
2017-08-13T11:59:13.472Z,31.20
2017-08-13T12:01:42.416Z,31.90
2017-08-13T12:04:11.377Z,31.80
2017-08-13T12:06:40.334Z,31.80
2017-08-13T12:09:09.291Z,32.00
2017-08-13T12:11:38.299Z,32.90
2017-08-13T12:14:07.260Z,33.50
2017-08-13T12:16:36.219Z,34.10
2017-08-13T12:19:19.058Z,34.20
2017-08-13T12:21:48.060Z,33.90
2017-08-13T12:24:17.015Z,33.50
2017-08-13T12:26:45.969Z,32.90
2017-08-13T12:29:14.928Z,32.40
2017-08-13T12:31:43.893Z,32.80
2017-08-13T12:34:12.897Z,33.80
2017-08-13T12:36:41.840Z,33.70
2017-08-13T12:39:10.798Z,33.10
2017-08-13T12:41:39.771Z,32.70
2017-08-13T12:44:08.727Z,32.80
2017-08-13T12:46:37.708Z,32.80
2017-08-13T12:49:06.664Z,33.00
2017-08-13T12:51:35.627Z,32.90
2017-08-13T12:54:04.584Z,32.90
2017-08-13T12:56:33.584Z,33.30
2017-08-13T12:59:02.575Z,33.10
2017-08-13T13:01:31.568Z,33.30
2017-08-13T13:04:00.533Z,34.40
2017-08-13T13:06:29.520Z,35.40
2017-08-13T13:08:58.484Z,35.30
2017-08-13T13:11:27.458Z,34.40
2017-08-13T13:13:57.172Z,33.50
2017-08-13T13:16:26.127Z,33.40
2017-08-13T13:18:55.088Z,33.50
2017-08-13T13:21:24.033Z,33.60
2017-08-13T13:23:53.015Z,32.80
2017-08-13T13:26:27.633Z,32.20
2017-08-13T13:29:04.224Z,31.70
2017-08-13T13:31:33.187Z,31.60
2017-08-13T13:34:02.145Z,32.80
2017-08-13T13:36:31.098Z,33.90
2017-08-13T13:39:00.826Z,36.10
2017-08-13T13:41:29.804Z,36.00
2017-08-13T13:43:58.754Z,36.80
2017-08-13T13:46:29.891Z,36.80
2017-08-13T13:48:58.846Z,35.80
2017-08-13T13:51:36.258Z,34.40
2017-08-13T13:54:05.417Z,33.60
2017-08-13T13:56:34.586Z,33.40
2017-08-13T13:59:03.983Z,33.80
2017-08-13T14:01:33.442Z,34.20
2017-08-13T14:04:02.423Z,33.70
2017-08-13T14:06:31.370Z,32.90
2017-08-13T14:09:00.323Z,32.40
2017-08-13T14:11:33.835Z,31.80
2017-08-13T14:14:02.859Z,31.20
2017-08-13T14:16:31.820Z,31.10
2017-08-13T14:19:00.783Z,31.40
2017-08-13T14:21:29.735Z,31.40
2017-08-13T14:24:10.143Z,31.00
2017-08-13T14:26:39.095Z,31.10
2017-08-13T14:29:08.081Z,31.60
2017-08-13T14:31:37.034Z,31.60
2017-08-13T14:34:05.983Z,31.10
2017-08-13T14:36:34.942Z,30.60
2017-08-13T14:39:03.897Z,30.10
2017-08-13T14:41:32.858Z,29.70
2017-08-13T14:44:02.588Z,29.20
2017-08-13T14:46:31.543Z,29.10
2017-08-13T14:49:00.487Z,29.30
2017-08-13T14:51:29.451Z,30.20
2017-08-13T14:53:58.420Z,31.20
2017-08-13T14:56:27.371Z,31.30
2017-08-13T14:59:08.295Z,31.40
2017-08-13T15:01:38.026Z,29.80
2017-08-13T15:04:06.978Z,29.70
2017-08-13T15:06:35.933Z,29.20
2017-08-13T15:09:04.881Z,29.20
2017-08-13T15:11:33.838Z,29.80
2017-08-13T15:14:02.787Z,30.70
2017-08-13T15:16:31.746Z,31.50
2017-08-13T15:19:00.700Z,32.10
2017-08-13T15:21:29.652Z,32.40
2017-08-13T15:23:58.619Z,32.60
2017-08-13T15:26:27.575Z,32.60
2017-08-13T15:28:56.559Z,32.40
2017-08-13T15:31:25.515Z,32.30
2017-08-13T15:33:55.240Z,31.90
2017-08-13T15:36:24.200Z,31.80
2017-08-13T15:38:53.158Z,31.90
2017-08-13T15:41:22.131Z,31.80
2017-08-13T15:43:51.086Z,31.60
2017-08-13T15:46:21.410Z,31.00
2017-08-13T15:48:51.054Z,30.90
2017-08-13T15:51:20.264Z,31.30
2017-08-13T15:53:49.960Z,31.90
2017-08-13T15:56:19.010Z,32.50
2017-08-13T15:58:48.277Z,32.80
2017-08-13T16:01:17.628Z,32.80
2017-08-13T16:03:52.533Z,32.80
2017-08-13T16:06:21.935Z,32.50
2017-08-13T16:08:51.370Z,32.10
2017-08-13T16:11:21.917Z,31.70
2017-08-13T16:13:51.061Z,31.30
2017-08-13T16:16:20.573Z,30.90
2017-08-13T16:18:50.788Z,30.90
2017-08-13T16:21:20.670Z,30.80
2017-08-13T16:23:49.726Z,30.70
2017-08-13T16:26:19.754Z,30.50
2017-08-13T16:28:48.724Z,30.70
2017-08-13T16:31:18.543Z,31.00
2017-08-13T16:33:47.599Z,31.40
2017-08-13T16:36:16.593Z,31.40
2017-08-13T16:38:45.735Z,31.60
2017-08-13T16:41:14.774Z,31.90
2017-08-13T16:43:43.765Z,32.20
2017-08-13T16:46:12.722Z,32.30
2017-08-13T16:48:41.681Z,32.10
2017-08-13T16:51:11.715Z,32.10
2017-08-13T16:53:42.611Z,32.10
2017-08-13T16:56:11.613Z,32.30
2017-08-13T16:58:41.517Z,32.40
2017-08-13T17:01:18.055Z,32.60
2017-08-13T17:03:47.555Z,32.80
2017-08-13T17:06:17.507Z,32.90
2017-08-13T17:08:46.478Z,33.00
2017-08-13T17:11:15.422Z,32.90
2017-08-13T17:13:44.378Z,32.80
2017-08-13T17:16:13.331Z,32.70
2017-08-13T17:18:42.303Z,32.40
2017-08-13T17:21:11.259Z,31.90
2017-08-13T17:23:40.218Z,31.40
2017-08-13T17:26:09.175Z,30.70
2017-08-13T17:28:38.141Z,29.90
2017-08-13T17:31:11.330Z,29.30
2017-08-13T17:33:40.287Z,28.70
2017-08-13T17:36:09.857Z,28.00
2017-08-13T17:38:38.880Z,27.50
2017-08-13T17:41:07.798Z,27.10
2017-08-13T17:43:36.762Z,26.60
2017-08-13T17:46:06.716Z,26.30
2017-08-13T17:48:35.690Z,26.00
2017-08-13T17:51:04.699Z,25.70
2017-08-13T17:53:33.680Z,25.20
2017-08-13T17:56:02.633Z,24.90
2017-08-13T17:58:31.603Z,24.80
2017-08-13T18:01:00.580Z,24.50
2017-08-13T18:03:29.797Z,24.00
2017-08-13T18:05:58.872Z,23.50
2017-08-13T18:08:27.936Z,23.20
2017-08-13T18:11:01.951Z,23.00
2017-08-13T18:13:31.108Z,22.70
2017-08-13T18:16:00.124Z,22.50
2017-08-13T18:18:29.127Z,22.30
2017-08-13T18:20:58.220Z,22.10
2017-08-13T18:23:27.281Z,21.90
2017-08-13T18:25:59.363Z,21.90
2017-08-13T18:28:29.088Z,21.90
2017-08-13T18:30:58.052Z,21.90
2017-08-13T18:33:45.162Z,21.70
2017-08-13T18:36:16.175Z,21.60
2017-08-13T18:38:45.122Z,21.60
2017-08-13T18:41:14.088Z,21.50
2017-08-13T18:43:43.369Z,21.50
2017-08-13T18:46:17.551Z,21.40
2017-08-13T18:48:46.537Z,21.20
2017-08-13T18:51:15.541Z,21.20
2017-08-13T18:53:44.567Z,21.00
2017-08-13T18:56:13.602Z,20.80
2017-08-13T18:58:46.123Z,20.70
2017-08-13T19:01:15.425Z,20.60
2017-08-13T19:03:44.394Z,20.50
2017-08-13T19:06:14.326Z,20.40
2017-08-13T19:08:43.306Z,20.30
2017-08-13T19:11:13.211Z,20.20
2017-08-13T19:13:46.102Z,20.10
2017-08-13T19:16:15.070Z,20.10
2017-08-13T19:18:45.011Z,20.00
2017-08-13T19:21:13.989Z,19.90
2017-08-13T19:23:43.915Z,19.90
2017-08-13T19:26:36.159Z,19.80
2017-08-13T19:29:05.989Z,19.60
2017-08-13T19:31:46.557Z,19.50
2017-08-13T19:34:15.537Z,19.60
2017-08-13T19:36:44.501Z,19.40
2017-08-13T19:39:15.144Z,19.40
2017-08-13T19:41:49.847Z,19.40
2017-08-13T19:44:19.364Z,19.40
2017-08-13T19:46:59.367Z,19.30
2017-08-13T19:49:28.415Z,19.20
2017-08-13T19:51:57.650Z,19.30
2017-08-13T19:54:27.212Z,19.30
2017-08-13T19:56:56.634Z,19.30
2017-08-13T19:59:26.728Z,19.00
2017-08-13T20:01:56.126Z,19.00
2017-08-13T20:04:26.046Z,18.90
2017-08-13T20:06:58.808Z,19.00
2017-08-13T20:09:28.231Z,19.00
2017-08-13T20:11:57.608Z,18.90
2017-08-13T20:14:27.214Z,18.90
2017-08-13T20:17:15.178Z,18.90
2017-08-13T20:19:45.888Z,18.80
2017-08-13T20:22:16.147Z,18.90
2017-08-13T20:24:46.439Z,18.80
2017-08-13T20:27:16.423Z,18.80
2017-08-13T20:29:45.535Z,18.80
2017-08-13T20:32:19.025Z,18.70
2017-08-13T20:34:48.716Z,18.70
2017-08-13T20:37:19.865Z,18.70
2017-08-13T20:39:49.672Z,18.60
2017-08-13T20:42:20.017Z,18.50
2017-08-13T20:44:49.515Z,18.40
2017-08-13T20:47:30.137Z,18.50
2017-08-13T20:50:00.384Z,18.60
2017-08-13T20:52:30.558Z,18.80
2017-08-13T20:55:01.332Z,18.70
2017-08-13T20:57:32.082Z,18.80
2017-08-13T21:00:01.649Z,18.90
2017-08-13T21:02:33.867Z,18.80
2017-08-13T21:05:08.397Z,18.60
2017-08-13T21:07:37.599Z,18.60
2017-08-13T21:10:07.213Z,18.50
2017-08-13T21:12:38.661Z,18.50
2017-08-13T21:15:08.886Z,18.50
2017-08-13T21:17:38.418Z,18.30
2017-08-13T21:20:11.188Z,18.10
2017-08-13T21:22:40.517Z,18.10
2017-08-13T21:25:10.693Z,18.30
2017-08-13T21:27:40.181Z,18.20
2017-08-13T21:30:09.806Z,18.40
2017-08-13T21:33:01.095Z,18.40
2017-08-13T21:35:31.208Z,18.40
2017-08-13T21:38:00.543Z,18.30
2017-08-13T21:40:30.198Z,18.40
2017-08-13T21:42:59.984Z,18.40
2017-08-13T21:45:30.484Z,18.20
2017-08-13T21:48:13.872Z,18.10
2017-08-13T21:50:44.314Z,18.10
2017-08-13T21:53:13.590Z,18.10
2017-08-13T21:55:45.116Z,18.10
2017-08-13T21:58:14.637Z,18.00
2017-08-13T22:00:44.257Z,18.10
2017-08-13T22:03:13.975Z,18.20
2017-08-13T22:05:42.969Z,18.10
2017-08-13T22:08:18.224Z,18.10
2017-08-13T22:10:51.864Z,18.10
2017-08-13T22:13:23.364Z,18.00
2017-08-13T22:15:52.595Z,18.00
2017-08-13T22:18:22.008Z,18.00
2017-08-13T22:20:51.389Z,18.00
2017-08-13T22:23:20.839Z,18.00
2017-08-13T22:25:50.750Z,18.00
2017-08-13T22:28:22.931Z,17.80
2017-08-13T22:30:52.343Z,17.70
2017-08-13T22:33:21.641Z,17.80
2017-08-13T22:35:51.770Z,17.80
2017-08-13T22:38:22.145Z,17.80
2017-08-13T22:40:52.365Z,17.80
2017-08-13T22:43:21.735Z,17.90
2017-08-13T22:45:50.996Z,18.00
2017-08-13T22:48:20.530Z,18.10
2017-08-13T22:50:51.086Z,18.20
2017-08-13T22:53:20.747Z,18.30
2017-08-13T22:55:50.155Z,18.30
2017-08-13T22:58:19.321Z,18.40
2017-08-13T23:00:48.392Z,18.50
2017-08-13T23:03:17.356Z,18.60
2017-08-13T23:05:46.704Z,18.50
2017-08-13T23:08:17.063Z,18.60
2017-08-13T23:10:46.646Z,18.50
2017-08-13T23:13:16.105Z,18.60
2017-08-13T23:15:52.001Z,18.60
2017-08-13T23:18:21.572Z,18.50
2017-08-13T23:20:59.287Z,18.40
2017-08-13T23:23:28.335Z,18.40
2017-08-13T23:25:58.027Z,18.20
2017-08-13T23:28:27.894Z,18.20
2017-08-13T23:30:57.308Z,18.10
2017-08-13T23:33:27.783Z,18.30
2017-08-13T23:35:57.290Z,18.20
2017-08-13T23:38:27.123Z,18.40
2017-08-13T23:40:57.398Z,18.50
2017-08-13T23:43:27.522Z,18.60
2017-08-13T23:45:56.700Z,18.50
2017-08-13T23:48:26.023Z,18.50
2017-08-13T23:50:55.576Z,18.30
2017-08-13T23:53:24.756Z,18.20
2017-08-13T23:55:55.426Z,18.10
2017-08-13T23:58:25.766Z,18.10
